SLSA/SBL METAR and TAF weather

Enter ICAO airport designator
Station Type Date Time Source
SLSA METAR 2020/09/19 16:00 UTC NOAA

SLSA 191600Z 34010KT 6000 FEW080 BKN200 34/22 Q1011


Station Type Date Time Source
SLSA Decoded METAR 2020/09/19 16:00 UTC NOAA

Santa Ana, Bolivia (SLSA) 13-46S 065-26W
Sep 19, 2020 - 12:00 PM EDT / 2020.09.19 1600 UTC
Wind: from the NNW (340 degrees) at 12 MPH (10 KT):0
Visibility: 3 mile(s):0
Sky conditions: mostly cloudy
Temperature: 93 F (34 C)
Heat index: 100.0 F (37.8 C):1
Dew Point: 71 F (22 C)
Relative Humidity: 49%
Pressure (altimeter): 29.85 in. Hg (1011 hPa)
ob: SLSA 191600Z 34010KT 6000 FEW080 BKN200 34/22 Q1011
cycle: 16

Station Type Date Time Source
SLSA TAF 2009/01/07 11:00 UTC NOAA

METAR SLSA 071100Z 00000KT 9999 FEW020 BKN080 26/24 Q1009

Example: see airport list